createdAt,value
2018-03-30T18:23:28.325Z,73.03
2018-03-30T18:25:55.944Z,72.86
2018-03-30T18:28:23.511Z,72.71
2018-03-30T18:30:51.148Z,72.86
2018-03-30T18:33:18.824Z,72.83
2018-03-30T18:35:46.373Z,73.01
2018-03-30T18:38:13.984Z,73.43
2018-03-30T18:40:41.707Z,73.63
2018-03-30T18:43:09.534Z,73.88
2018-03-30T18:45:37.116Z,73.94
2018-03-30T18:48:04.680Z,74.17
2018-03-30T18:50:32.282Z,74.22
2018-03-30T18:52:59.896Z,74.32
2018-03-30T18:55:27.476Z,74.25
2018-03-30T18:57:55.047Z,74.36
2018-03-30T19:00:22.658Z,74.60
2018-03-30T19:02:50.220Z,74.88
2018-03-30T19:05:17.819Z,75.03
2018-03-30T19:07:45.396Z,75.34
2018-03-30T19:10:12.985Z,75.63
2018-03-30T19:12:40.567Z,75.76
2018-03-30T19:15:08.153Z,75.89
2018-03-30T19:17:35.736Z,75.67
2018-03-30T19:20:03.335Z,75.66
2018-03-30T19:22:30.933Z,75.88
2018-03-30T19:24:58.530Z,76.22
2018-03-30T19:27:26.122Z,76.60
2018-03-30T19:29:53.718Z,76.67
2018-03-30T19:32:21.294Z,77.09
2018-03-30T19:34:48.866Z,76.98
2018-03-30T19:37:16.471Z,77.25
2018-03-30T19:39:44.061Z,77.29
2018-03-30T19:42:11.736Z,77.56
2018-03-30T19:44:39.325Z,77.80
2018-03-30T19:47:06.978Z,77.80
2018-03-30T19:49:34.557Z,77.64
2018-03-30T19:52:02.153Z,77.66
2018-03-30T19:54:29.743Z,77.92
2018-03-30T19:56:57.317Z,78.28
2018-03-30T19:59:24.911Z,78.62
2018-03-30T20:01:52.491Z,78.85
2018-03-30T20:04:20.082Z,78.80
2018-03-30T20:06:47.698Z,78.77
2018-03-30T20:09:15.272Z,79.15
2018-03-30T20:11:42.970Z,79.22
2018-03-30T20:14:10.572Z,79.44
2018-03-30T20:16:38.159Z,79.33
2018-03-30T20:19:05.793Z,78.97
2018-03-30T20:21:33.372Z,79.09
2018-03-30T20:24:00.973Z,79.15
2018-03-30T20:26:28.566Z,79.25
2018-03-30T20:28:56.179Z,79.40
2018-03-30T20:31:23.756Z,79.14
2018-03-30T20:33:51.659Z,79.29
2018-03-30T20:36:19.298Z,79.27
2018-03-30T20:38:46.907Z,79.29
2018-03-30T20:41:14.517Z,79.40
2018-03-30T20:43:42.119Z,79.14
2018-03-30T20:46:09.791Z,79.02
2018-03-30T20:48:37.456Z,79.12
2018-03-30T20:51:05.055Z,79.36
2018-03-30T20:53:32.639Z,79.32
2018-03-30T20:56:00.231Z,79.72
2018-03-30T20:58:27.831Z,80.19
2018-03-30T21:00:55.414Z,80.43
2018-03-30T21:03:22.992Z,80.67
2018-03-30T21:05:51.094Z,80.73
2018-03-30T21:08:18.695Z,80.33
2018-03-30T21:10:46.278Z,80.70
2018-03-30T21:13:13.877Z,80.89
2018-03-30T21:15:41.491Z,81.04
2018-03-30T21:18:09.133Z,80.86
2018-03-30T21:20:36.750Z,80.87
2018-03-30T21:23:04.433Z,80.86
2018-03-30T21:25:32.015Z,79.82
2018-03-30T21:27:59.776Z,79.84
2018-03-30T21:30:27.371Z,79.86
2018-03-30T21:32:55.019Z,80.09
2018-03-30T21:35:22.606Z,80.63
2018-03-30T21:37:50.198Z,80.86
2018-03-30T21:40:17.849Z,80.45
2018-03-30T21:42:45.483Z,80.48
2018-03-30T21:45:13.087Z,80.62
2018-03-30T21:47:40.693Z,80.54
2018-03-30T21:50:36.157Z,80.88
2018-03-30T21:53:04.698Z,80.82
2018-03-30T21:55:32.292Z,80.45
2018-03-30T21:57:59.878Z,79.94
2018-03-30T22:00:27.455Z,80.28
2018-03-30T22:02:56.041Z,80.66
2018-03-30T22:05:23.688Z,80.90
2018-03-30T22:07:51.311Z,81.10
2018-03-30T22:10:18.925Z,81.25
2018-03-30T22:12:46.506Z,81.18
2018-03-30T22:15:14.084Z,80.70
2018-03-30T22:17:41.662Z,80.49
2018-03-30T22:20:09.240Z,80.65
2018-03-30T22:22:36.819Z,80.88
2018-03-30T22:25:04.416Z,80.97
2018-03-30T22:27:32.305Z,80.95
2018-03-30T22:29:59.930Z,80.96
2018-03-30T22:32:27.526Z,80.95
2018-03-30T22:34:55.110Z,81.46
2018-03-30T22:37:22.698Z,81.66
2018-03-30T22:39:51.175Z,81.93
2018-03-30T22:42:18.792Z,82.16
2018-03-30T22:44:46.370Z,82.58
2018-03-30T22:47:13.957Z,82.63
2018-03-30T22:49:41.565Z,82.83
2018-03-30T22:52:09.191Z,83.16
2018-03-30T22:54:36.769Z,83.35
2018-03-30T22:57:04.355Z,83.99
2018-03-30T22:59:31.963Z,84.44
2018-03-30T23:01:59.550Z,84.58
2018-03-30T23:04:27.141Z,84.68
2018-03-30T23:06:54.722Z,84.78
2018-03-30T23:09:22.312Z,84.49
2018-03-30T23:11:50.046Z,83.96
2018-03-30T23:14:17.687Z,83.34
2018-03-30T23:16:45.438Z,82.98
2018-03-30T23:19:13.036Z,82.98
2018-03-30T23:21:40.621Z,83.28
2018-03-30T23:24:08.206Z,83.95
2018-03-30T23:26:36.189Z,84.33
2018-03-30T23:29:03.989Z,84.80
2018-03-30T23:31:31.565Z,85.05
2018-03-30T23:33:59.310Z,85.35
2018-03-30T23:36:26.903Z,85.85
2018-03-30T23:38:54.473Z,86.14
2018-03-30T23:41:22.128Z,86.03
2018-03-30T23:43:49.693Z,86.06
2018-03-30T23:46:17.280Z,86.26
2018-03-30T23:48:44.916Z,86.44
2018-03-30T23:51:12.498Z,85.98
2018-03-30T23:53:40.069Z,85.83
2018-03-30T23:56:07.678Z,85.44
2018-03-30T23:58:35.270Z,85.49
